Time;durP1;ratioP1;P1;durP2;ratioP2;P2;SDS_P1;SDS_P2;PMS_P1;PMS_P2;Temp;Humidity;BMP_temperature;BMP_pressure;BME280_temperature;BME280_humidity;BME280_pressure;Samples;Min_cycle;Max_cycle;Signal;HPM_P1;HPM_P2
2023/11/06 00:01:44;;;;;;;1.05;0.10;;;;;;;10.02;100.00;99505.28;5082600;28;20113;-66
2023/11/06 00:04:09;;;;;;;0.57;0.30;;;;;;;9.97;100.00;99516.19;5091275;28;20039;-66
2023/11/06 00:06:36;;;;;;;4.85;0.40;;;;;;;9.94;100.00;99512.13;5090163;28;20036;-66
2023/11/06 00:09:03;;;;;;;3.22;0.30;;;;;;;9.93;100.00;99525.28;5084725;28;20037;-66
2023/11/06 00:11:29;;;;;;;2.10;0.20;;;;;;;9.96;100.00;99530.97;5091805;28;20611;-66
2023/11/06 00:13:55;;;;;;;4.22;0.20;;;;;;;9.99;100.00;99532.44;5091610;28;20096;-66
2023/11/06 00:16:21;;;;;;;3.22;0.10;;;;;;;10.10;100.00;99534.72;5090983;28;20054;-66
2023/11/06 00:18:47;;;;;;;2.75;0.30;;;;;;;10.14;100.00;99540.41;5087076;28;20102;-66
2023/11/06 00:21:12;;;;;;;7.05;0.30;;;;;;;9.99;100.00;99537.66;5090669;28;20036;-66
2023/11/06 00:23:39;;;;;;;1.02;0.15;;;;;;;10.01;100.00;99550.50;5087086;28;20386;-66
2023/11/06 00:26:06;;;;;;;1.20;0.20;;;;;;;9.95;100.00;99552.78;5092749;28;20019;-66
2023/11/06 00:28:31;;;;;;;0.45;0.15;;;;;;;9.97;100.00;99560.41;5091276;28;20461;-66
2023/11/06 00:30:57;;;;;;;2.28;0.20;;;;;;;9.90;100.00;99564.69;5092884;28;20114;-66
2023/11/06 00:33:23;;;;;;;0.43;0.10;;;;;;;9.93;100.00;99562.53;5088722;28;20032;-66
2023/11/06 00:35:49;;;;;;;0.73;0.20;;;;;;;9.93;100.00;99574.72;5089570;28;20021;-66
2023/11/06 00:38:14;;;;;;;1.05;0.20;;;;;;;9.89;100.00;99570.84;5094535;28;20058;-66
2023/11/06 00:40:40;;;;;;;0.32;0.10;;;;;;;9.92;100.00;99573.13;5097257;28;20110;-66
2023/11/06 00:43:06;;;;;;;1.50;0.20;;;;;;;9.89;100.00;99581.25;5083886;28;20138;-66
2023/11/06 00:45:31;;;;;;;1.02;0.20;;;;;;;9.87;100.00;99586.63;5084381;28;20501;-66
2023/11/06 00:47:57;;;;;;;1.80;0.20;;;;;;;9.87;100.00;99588.41;5086573;28;20028;-66
2023/11/06 00:50:23;;;;;;;0.60;0.10;;;;;;;9.84;100.00;99601.75;5089755;28;20059;-66
2023/11/06 00:52:48;;;;;;;2.22;0.20;;;;;;;9.92;100.00;99601.75;5096863;28;20048;-66
2023/11/06 00:55:15;;;;;;;3.45;0.20;;;;;;;10.04;100.00;99603.03;5083820;28;20084;-66
2023/11/06 00:57:40;;;;;;;2.95;0.20;;;;;;;10.13;100.00;99609.88;5087461;28;20043;-66
2023/11/06 01:00:10;;;;;;;0.40;0.20;;;;;;;10.23;100.00;99609.75;5088637;28;20032;-66
2023/11/06 01:02:37;;;;;;;1.30;0.20;;;;;;;10.28;100.00;99604.88;5088094;28;20046;-66
2023/11/06 01:05:04;;;;;;;2.13;0.20;;;;;;;10.29;100.00;99601.28;5087900;28;20039;-66
2023/11/06 01:07:31;;;;;;;1.30;0.20;;;;;;;10.40;100.00;99602.75;5087710;28;20055;-66
2023/11/06 01:09:56;;;;;;;3.80;0.30;;;;;;;10.42;100.00;99598.19;5089020;28;20032;-66
2023/11/06 01:12:22;;;;;;;6.70;0.50;;;;;;;10.52;100.00;99606.63;5091507;28;20031;-66
2023/11/06 01:14:47;;;;;;;1.98;0.30;;;;;;;10.56;100.00;99600.94;5085467;28;20020;-66
2023/11/06 01:17:13;;;;;;;1.20;0.17;;;;;;;10.55;100.00;99596.69;5086047;28;20041;-66
2023/11/06 01:19:38;;;;;;;1.17;0.28;;;;;;;10.59;100.00;99605.00;5082185;28;20039;-66
2023/11/06 01:22:03;;;;;;;0.52;0.20;;;;;;;10.64;100.00;99607.91;5082772;28;21363;-66
2023/11/06 01:24:29;;;;;;;1.67;0.20;;;;;;;10.70;100.00;99602.06;5085184;28;20040;-66
2023/11/06 01:26:54;;;;;;;0.55;0.20;;;;;;;10.71;100.00;99606.28;5081868;28;20043;-66
2023/11/06 01:29:20;;;;;;;0.80;0.15;;;;;;;10.73;100.00;99614.75;5082443;28;20040;-66
2023/11/06 01:31:45;;;;;;;1.75;0.43;;;;;;;10.77;100.00;99612.63;5090770;28;20489;-66
2023/11/06 01:34:11;;;;;;;1.90;0.22;;;;;;;10.71;100.00;99616.72;5081580;28;20032;-66
2023/11/06 01:36:42;;;;;;;0.65;0.20;;;;;;;10.77;100.00;99617.84;5081582;28;20038;-66
2023/11/06 01:39:07;;;;;;;0.50;0.10;;;;;;;10.80;100.00;99615.72;5082430;28;20035;-66
2023/11/06 01:41:32;;;;;;;2.25;0.30;;;;;;;10.86;100.00;99620.25;5081398;28;20040;-67
2023/11/06 01:43:58;;;;;;;2.10;0.30;;;;;;;10.89;100.00;99619.09;5081211;28;20050;-66
2023/11/06 01:46:24;;;;;;;1.77;0.20;;;;;;;10.89;100.00;99622.50;5081483;28;20047;-66
2023/11/06 01:48:51;;;;;;;0.88;0.15;;;;;;;10.85;100.00;99631.66;5082410;28;20027;-66
2023/11/06 01:51:16;;;;;;;2.05;0.32;;;;;;;10.91;100.00;99632.75;5082228;28;20036;-66
2023/11/06 01:53:42;;;;;;;6.40;0.40;;;;;;;10.91;100.00;99627.56;5080867;28;20031;-66
2023/11/06 01:56:08;;;;;;;1.60;0.35;;;;;;;10.90;100.00;99631.94;5086184;28;20126;-66
2023/11/06 01:58:33;;;;;;;3.22;0.30;;;;;;;10.87;100.00;99629.69;5088390;28;20107;-66
2023/11/06 02:00:59;;;;;;;1.42;0.20;;;;;;;10.92;100.00;99639.59;5086662;28;20031;-66
2023/11/06 02:03:26;;;;;;;2.75;0.20;;;;;;;10.98;100.00;99642.38;5085941;28;20036;-66
2023/11/06 02:05:52;;;;;;;2.63;0.50;;;;;;;10.93;100.00;99642.03;5085647;28;20024;-66
2023/11/06 02:08:17;;;;;;;4.57;0.38;;;;;;;10.88;100.00;99641.72;5094814;28;20076;-66
2023/11/06 02:10:44;;;;;;;1.50;0.25;;;;;;;10.93;100.00;99651.66;5091776;28;20027;-66
2023/11/06 02:13:10;;;;;;;2.70;0.40;;;;;;;10.90;100.00;99652.81;5093961;28;20029;-66
2023/11/06 02:15:38;;;;;;;1.10;0.30;;;;;;;10.72;100.00;99654.00;5088935;28;20039;-66
2023/11/06 02:18:04;;;;;;;3.42;0.40;;;;;;;10.66;100.00;99647.66;5086490;28;20563;-66
2023/11/06 02:20:29;;;;;;;4.10;0.30;;;;;;;10.71;100.00;99665.38;5069866;28;20048;-66
2023/11/06 02:23:04;;;;;;;1.85;0.52;;;;;;;10.79;100.00;99671.41;5085805;28;20028;-66
2023/11/06 02:25:30;;;;;;;2.07;0.60;;;;;;;10.79;100.00;99676.63;5088104;28;20040;-66
2023/11/06 02:27:56;;;;;;;2.75;0.30;;;;;;;10.85;100.00;99675.97;5092204;28;20032;-67
2023/11/06 02:30:22;;;;;;;3.50;0.60;;;;;;;10.90;100.00;99684.06;5094102;28;20532;-66
2023/11/06 02:32:47;;;;;;;1.83;0.40;;;;;;;10.93;100.00;99683.75;5091669;28;20118;-66
2023/11/06 02:35:13;;;;;;;3.30;0.38;;;;;;;10.96;100.00;99683.41;5091597;28;20538;-66
2023/11/06 02:37:38;;;;;;;0.50;0.30;;;;;;;10.92;100.00;99676.91;5087766;28;20028;-66
2023/11/06 02:40:06;;;;;;;3.03;0.30;;;;;;;10.96;100.00;99683.41;5086120;28;20036;-66
2023/11/06 02:42:38;;;;;;;2.47;0.30;;;;;;;11.00;100.00;99685.69;5090039;28;20032;-66
2023/11/06 02:45:06;;;;;;;1.25;0.38;;;;;;;11.00;100.00;99683.91;5085980;28;20028;-66
2023/11/06 02:47:31;;;;;;;2.70;0.52;;;;;;;11.03;100.00;99690.56;5089307;28;20032;-66
2023/11/06 02:49:57;;;;;;;0.90;0.47;;;;;;;11.01;100.00;99692.53;5087820;28;20089;-66
2023/11/06 02:52:23;;;;;;;3.55;0.40;;;;;;;11.01;100.00;99690.75;5092256;28;20119;-66
2023/11/06 02:54:48;;;;;;;0.70;0.30;;;;;;;10.95;100.00;99692.22;5090490;28;20102;-66
2023/11/06 02:57:14;;;;;;;2.55;0.40;;;;;;;10.83;100.00;99692.75;5083486;28;20028;-66
2023/11/06 02:59:40;;;;;;;2.88;0.38;;;;;;;10.86;100.00;99689.81;5084647;28;20499;-66
2023/11/06 03:02:05;;;;;;;5.43;0.43;;;;;;;10.88;100.00;99693.84;5082058;28;20064;-66
2023/11/06 03:04:32;;;;;;;1.05;0.50;;;;;;;10.92;100.00;99700.38;5083189;28;20036;-66
2023/11/06 03:06:57;;;;;;;2.67;0.20;;;;;;;10.92;100.00;99705.56;5083764;28;20028;-66
2023/11/06 03:09:24;;;;;;;1.30;0.30;;;;;;;10.88;100.00;99712.09;5083911;28;20112;-66
2023/11/06 03:11:50;;;;;;;0.68;0.20;;;;;;;10.86;100.00;99716.69;5082990;28;20020;-66
2023/11/06 03:14:15;;;;;;;0.80;0.20;;;;;;;10.88;100.00;99722.50;5084175;28;20027;-66
2023/11/06 03:16:41;;;;;;;2.58;0.20;;;;;;;10.88;100.00;99726.91;5085803;28;20024;-66
2023/11/06 03:19:07;;;;;;;2.92;0.30;;;;;;;10.87;100.00;99736.53;5087688;28;20028;-66
2023/11/06 03:21:32;;;;;;;0.38;0.20;;;;;;;10.87;100.00;99741.72;5082529;28;20043;-66
2023/11/06 03:23:58;;;;;;;1.95;0.40;;;;;;;10.88;100.00;99738.16;5086150;28;20040;-66
2023/11/06 03:26:24;;;;;;;2.17;0.30;;;;;;;10.89;100.00;99734.56;5088353;28;20042;-66
2023/11/06 03:28:49;;;;;;;4.97;0.30;;;;;;;10.86;100.00;99744.53;5089935;28;20047;-66
2023/11/06 03:31:15;;;;;;;1.58;0.30;;;;;;;10.86;100.00;99745.34;5089759;28;20111;-66
2023/11/06 03:33:40;;;;;;;2.28;0.20;;;;;;;10.90;100.00;99753.63;5088490;28;20097;-66
2023/11/06 03:36:06;;;;;;;1.77;0.30;;;;;;;10.84;100.00;99762.13;5093090;28;20040;-66
2023/11/06 03:38:33;;;;;;;2.55;0.30;;;;;;;10.87;100.00;99772.22;5090150;28;20036;-66
2023/11/06 03:40:58;;;;;;;1.98;0.30;;;;;;;10.89;100.00;99768.44;5090399;28;20046;-67
2023/11/06 03:43:24;;;;;;;2.38;0.40;;;;;;;10.91;100.00;99773.50;5090029;28;20392;-66
2023/11/06 03:45:50;;;;;;;1.00;0.20;;;;;;;10.89;100.00;99773.66;5089473;28;20391;-66
2023/11/06 03:48:15;;;;;;;2.08;0.30;;;;;;;10.88;100.00;99779.84;5088014;28;20032;-66
2023/11/06 03:50:43;;;;;;;1.42;0.38;;;;;;;10.95;100.00;99783.44;5086428;28;20457;-66
2023/11/06 03:53:14;;;;;;;2.90;0.40;;;;;;;10.95;100.00;99791.25;5089739;28;20556;-66
2023/11/06 03:55:40;;;;;;;1.70;0.25;;;;;;;10.98;100.00;99798.75;5089226;28;20490;-66
2023/11/06 03:58:05;;;;;;;1.40;0.30;;;;;;;11.00;100.00;99795.16;5091829;28;20024;-67
2023/11/06 04:00:31;;;;;;;1.95;0.30;;;;;;;11.00;100.00;99802.97;5089048;28;20028;-66
2023/11/06 04:02:56;;;;;;;1.05;0.30;;;;;;;10.94;100.00;99802.66;5088788;28;20034;-67
2023/11/06 04:05:22;;;;;;;1.30;0.32;;;;;;;10.98;100.00;99805.75;5089717;28;20418;-66
2023/11/06 04:07:47;;;;;;;0.88;0.30;;;;;;;11.00;100.00;99808.19;5087997;28;20407;-66
2023/11/06 04:10:15;;;;;;;0.90;0.30;;;;;;;10.97;100.00;99814.56;5087931;28;20790;-66
2023/11/06 04:12:40;;;;;;;0.77;0.30;;;;;;;10.96;100.00;99818.94;5090347;28;20038;-66
2023/11/06 04:15:07;;;;;;;0.82;0.17;;;;;;;10.94;100.00;99820.91;5087197;28;20024;-66
2023/11/06 04:17:32;;;;;;;0.80;0.22;;;;;;;10.86;100.00;99822.72;5088607;28;20372;-66
2023/11/06 04:19:58;;;;;;;0.70;0.20;;;;;;;10.82;100.00;99816.19;5088891;28;20039;-66
2023/11/06 04:22:23;;;;;;;1.33;0.30;;;;;;;10.74;100.00;99824.81;5088255;28;20493;-66
2023/11/06 04:24:49;;;;;;;2.75;0.20;;;;;;;10.71;100.00;99830.34;5088754;28;20059;-66
2023/11/06 04:27:14;;;;;;;1.00;0.45;;;;;;;10.66;100.00;99831.81;5087550;28;20475;-66
2023/11/06 04:29:40;;;;;;;1.38;0.32;;;;;;;10.64;100.00;99837.16;5088379;28;20055;-66
2023/11/06 04:32:06;;;;;;;1.20;0.30;;;;;;;10.63;100.00;99841.56;5094554;28;20119;-66
2023/11/06 04:34:31;;;;;;;1.05;0.20;;;;;;;10.65;100.00;99849.22;5092515;28;20478;-66
2023/11/06 04:36:56;;;;;;;1.63;0.55;;;;;;;10.68;100.00;99851.50;5087510;28;20042;-66
2023/11/06 04:39:22;;;;;;;0.80;0.35;;;;;;;10.69;100.00;99857.53;5090266;28;20081;-66
2023/11/06 04:41:47;;;;;;;3.60;0.50;;;;;;;10.69;100.00;99852.31;5084837;28;20114;-66
2023/11/06 04:44:12;;;;;;;4.32;0.40;;;;;;;10.75;100.00;99855.09;5089248;28;20035;-66
2023/11/06 04:46:38;;;;;;;1.00;0.40;;;;;;;10.78;100.00;99854.78;5086540;28;20036;-66
2023/11/06 04:49:03;;;;;;;1.20;0.30;;;;;;;10.77;100.00;99855.75;5086165;28;20526;-66
2023/11/06 04:51:29;;;;;;;1.10;0.50;;;;;;;10.73;100.00;99859.66;5088993;28;20051;-66
2023/11/06 04:53:54;;;;;;;2.28;0.40;;;;;;;10.74;100.00;99866.50;5089638;28;20036;-66
2023/11/06 04:56:20;;;;;;;3.88;0.43;;;;;;;10.70;100.00;99865.19;5086736;28;20549;-66
2023/11/06 04:58:46;;;;;;;1.60;0.47;;;;;;;10.68;100.00;99872.34;5081421;28;20039;-66
2023/11/06 05:01:11;;;;;;;0.38;0.20;;;;;;;10.67;100.00;99868.09;5081331;28;20077;-66
2023/11/06 05:03:38;;;;;;;3.67;0.38;;;;;;;10.70;100.00;99862.59;5082062;28;20039;-66
2023/11/06 05:06:05;;;;;;;2.33;0.20;;;;;;;10.67;100.00;99870.72;5081254;28;20032;-66
2023/11/06 05:08:31;;;;;;;0.90;0.20;;;;;;;10.63;100.00;99877.22;5080915;28;20032;-66
2023/11/06 05:10:56;;;;;;;4.63;0.20;;;;;;;10.64;100.00;99881.47;5081633;28;20042;-66
2023/11/06 05:13:22;;;;;;;2.78;0.20;;;;;;;10.60;100.00;99880.97;5082981;28;20475;-74
2023/11/06 05:15:48;;;;;;;2.92;0.20;;;;;;;10.63;100.00;99879.81;5080679;28;20032;-66
2023/11/06 05:18:14;;;;;;;0.90;0.10;;;;;;;10.61;100.00;99877.38;5084991;28;20644;-66
2023/11/06 05:20:43;;;;;;;1.02;0.22;;;;;;;10.57;100.00;99885.66;5079973;28;20047;-66
2023/11/06 05:23:09;;;;;;;0.52;0.20;;;;;;;10.57;100.00;99885.66;5080151;28;21351;-66
2023/11/06 05:25:35;;;;;;;4.35;0.35;;;;;;;10.48;100.00;99892.63;5080431;28;20173;-66
2023/11/06 05:28:00;;;;;;;2.45;0.22;;;;;;;10.49;100.00;99894.25;5086572;28;20097;-66
2023/11/06 05:30:26;;;;;;;2.60;0.15;;;;;;;10.45;100.00;99897.34;5084452;28;20476;-66
2023/11/06 05:32:57;;;;;;;0.85;0.20;;;;;;;10.43;100.00;99900.09;5084976;28;20443;-66
2023/11/06 05:35:22;;;;;;;1.45;0.20;;;;;;;10.39;100.00;99903.19;5083661;28;20024;-66
2023/11/06 05:37:48;;;;;;;2.05;0.65;;;;;;;10.38;100.00;99902.38;5087629;28;20039;-66
2023/11/06 05:40:14;;;;;;;2.92;0.30;;;;;;;10.37;100.00;99905.97;5088710;28;20139;-65
2023/11/06 05:42:40;;;;;;;1.58;0.40;;;;;;;10.37;100.00;99903.34;5092151;28;20023;-66
2023/11/06 05:45:08;;;;;;;3.92;0.20;;;;;;;10.28;100.00;99915.53;5091396;28;20447;-66
2023/11/06 05:47:34;;;;;;;2.67;0.50;;;;;;;10.22;100.00;99916.13;5086120;28;20500;-66
2023/11/06 05:49:59;;;;;;;2.30;0.50;;;;;;;10.23;100.00;99920.38;5084834;28;20037;-66
2023/11/06 05:52:25;;;;;;;1.65;0.50;;;;;;;10.18;100.00;99920.00;5089031;28;20044;-66
2023/11/06 05:54:50;;;;;;;2.05;0.60;;;;;;;10.15;100.00;99928.09;5092521;28;20410;-66
2023/11/06 05:57:16;;;;;;;2.72;0.40;;;;;;;10.15;100.00;99935.91;5093002;28;20153;-66
2023/11/06 05:59:42;;;;;;;1.33;0.50;;;;;;;10.08;100.00;99931.47;5091901;28;20024;-66
2023/11/06 06:02:08;;;;;;;3.53;0.40;;;;;;;10.05;100.00;99937.00;5091551;28;20387;-66
2023/11/06 06:04:34;;;;;;;2.83;0.50;;;;;;;10.02;100.00;99940.72;5091760;28;20570;-66
2023/11/06 06:07:00;;;;;;;1.50;0.28;;;;;;;9.99;100.00;99946.22;5093295;28;20034;-66
2023/11/06 06:09:25;;;;;;;2.13;0.20;;;;;;;10.03;100.00;99939.75;5093065;28;20032;-66
2023/11/06 06:11:51;;;;;;;1.65;0.20;;;;;;;10.03;100.00;99955.38;5093801;28;20070;-66
2023/11/06 06:14:16;;;;;;;1.42;0.30;;;;;;;10.04;100.00;99957.00;5093406;28;20117;-66
2023/11/06 06:16:44;;;;;;;0.80;0.17;;;;;;;10.05;100.00;99958.63;5091499;28;20536;-66
2023/11/06 06:19:09;;;;;;;1.42;0.32;;;;;;;10.10;100.00;99972.00;5091766;28;20119;-66
2023/11/06 06:21:35;;;;;;;1.63;0.28;;;;;;;10.16;100.00;99971.38;5090790;28;20126;-66
2023/11/06 06:24:00;;;;;;;1.30;0.40;;;;;;;10.19;100.00;99985.88;5098073;28;20046;-66
2023/11/06 06:26:26;;;;;;;3.28;0.43;;;;;;;10.25;100.00;99996.53;5091683;28;20126;-66
2023/11/06 06:28:52;;;;;;;5.05;0.47;;;;;;;10.25;100.00;99996.53;5091398;28;20048;-66
2023/11/06 06:31:18;;;;;;;3.85;0.30;;;;;;;10.30;100.00;99994.28;5096022;28;20102;-67
2023/11/06 06:33:43;;;;;;;3.20;0.50;;;;;;;10.40;100.00;99996.75;5092153;28;20027;-66
2023/11/06 06:36:12;;;;;;;1.52;0.22;;;;;;;10.48;100.00;100004.63;5092071;28;20437;-66
2023/11/06 06:38:37;;;;;;;4.35;0.30;;;;;;;10.55;100.00;100004.81;5098214;28;20031;-66
2023/11/06 06:41:03;;;;;;;1.00;0.30;;;;;;;10.61;100.00;100001.59;5094115;28;20027;-66
2023/11/06 06:43:29;;;;;;;3.25;0.20;;;;;;;10.70;100.00;100016.31;5090787;28;20424;-66
2023/11/06 06:45:55;;;;;;;2.58;0.30;;;;;;;10.74;100.00;100011.59;5092159;28;20035;-66
2023/11/06 06:48:20;;;;;;;2.60;0.30;;;;;;;10.72;100.00;100014.34;5092243;28;20441;-66
2023/11/06 06:50:45;;;;;;;1.33;0.22;;;;;;;10.75;100.00;100021.88;5095826;28;20040;-66
2023/11/06 06:53:11;;;;;;;0.68;0.30;;;;;;;10.86;100.00;100020.78;5091500;28;20040;-67
2023/11/06 06:55:37;;;;;;;3.67;0.20;;;;;;;10.91;100.00;100021.09;5091633;28;20032;-67
2023/11/06 06:58:04;;;;;;;4.03;0.28;;;;;;;10.96;100.00;100022.25;5093016;28;20032;-66
2023/11/06 07:00:31;;;;;;;0.68;0.20;;;;;;;11.12;100.00;100028.50;5090005;28;20032;-66
2023/11/06 07:02:57;;;;;;;1.92;0.20;;;;;;;11.22;100.00;100026.59;5086436;28;20044;-66
2023/11/06 07:05:22;;;;;;;2.08;0.35;;;;;;;11.27;100.00;100026.94;5093048;28;20040;-66
2023/11/06 07:07:48;;;;;;;4.57;0.30;;;;;;;11.32;100.00;100037.69;5100980;28;20031;-66
2023/11/06 07:10:13;;;;;;;3.05;0.30;;;;;;;11.38;100.00;100037.03;5093709;28;20043;-66
2023/11/06 07:12:39;;;;;;;2.50;0.40;;;;;;;11.48;100.00;100034.28;5091686;28;20042;-67
2023/11/06 07:15:06;;;;;;;2.28;0.38;;;;;;;11.57;100.00;100036.75;5093185;28;20024;-67
2023/11/06 07:17:31;;;;;;;4.20;0.75;;;;;;;11.59;100.00;100040.00;5090630;28;20451;-66
2023/11/06 07:19:57;;;;;;;2.85;0.40;;;;;;;11.58;100.00;100054.03;5091032;28;20047;-66
2023/11/06 07:22:23;;;;;;;5.30;0.30;;;;;;;11.60;100.00;100048.66;5093345;28;20044;-66
2023/11/06 07:24:48;;;;;;;2.38;0.30;;;;;;;11.63;100.00;100056.97;5088863;28;20115;-67
2023/11/06 07:27:13;;;;;;;3.30;0.30;;;;;;;11.71;100.00;100052.75;5089000;28;20035;-67
2023/11/06 07:29:39;;;;;;;1.90;0.30;;;;;;;11.77;100.00;100062.59;5090596;28;20041;-67
2023/11/06 07:32:05;;;;;;;4.18;0.30;;;;;;;11.79;100.00;100068.47;5088740;28;20040;-66
2023/11/06 07:34:30;;;;;;;2.78;0.35;;;;;;;11.81;100.00;100069.13;5090806;28;20028;-66
2023/11/06 07:36:56;;;;;;;2.88;0.30;;;;;;;11.87;100.00;100073.66;5089806;28;20024;-67
2023/11/06 07:39:21;;;;;;;6.20;0.40;;;;;;;11.88;100.00;100080.50;5091416;28;20391;-66
2023/11/06 07:41:47;;;;;;;0.85;0.20;;;;;;;11.93;100.00;100088.69;5090488;28;20136;-67
2023/11/06 07:44:12;;;;;;;4.22;0.30;;;;;;;11.91;100.00;100090.63;5093158;28;20034;-67
2023/11/06 07:46:38;;;;;;;6.32;0.20;;;;;;;11.96;100.00;100090.97;5090863;28;20035;-67
2023/11/06 07:49:03;;;;;;;3.78;0.20;;;;;;;11.96;100.00;100098.81;5091267;28;20532;-67
2023/11/06 07:51:29;;;;;;;0.85;0.20;;;;;;;12.04;100.00;100101.41;5091243;28;20088;-67
2023/11/06 07:53:55;;;;;;;2.60;0.20;;;;;;;12.07;100.00;100095.06;5091542;28;20028;-67
2023/11/06 07:56:20;;;;;;;1.77;0.10;;;;;;;12.13;100.00;100103.06;5091403;28;20447;-66
2023/11/06 07:58:47;;;;;;;2.50;0.10;;;;;;;12.22;100.00;100109.91;5090899;28;20365;-67
2023/11/06 08:01:13;;;;;;;1.98;0.10;;;;;;;12.38;100.00;100114.28;5090778;28;20056;-67
2023/11/06 08:03:38;;;;;;;0.88;0.25;;;;;;;12.50;100.00;100115.59;5090531;28;20123;-67
2023/11/06 08:06:05;;;;;;;2.22;0.22;;;;;;;12.67;100.00;100119.00;5090804;28;20181;-66
2023/11/06 08:08:31;;;;;;;3.40;0.13;;;;;;;12.76;100.00;100117.19;5090738;28;20065;-69
2023/11/06 08:10:56;;;;;;;2.60;0.10;;;;;;;12.93;100.00;100118.78;5091116;28;20047;-69
2023/11/06 08:13:22;;;;;;;2.90;0.17;;;;;;;13.00;100.00;100122.34;5090775;28;20120;-69
2023/11/06 08:15:48;;;;;;;2.53;0.17;;;;;;;13.01;100.00;100123.16;5089456;28;20523;-70
2023/11/06 08:18:13;;;;;;;0.43;0.20;;;;;;;13.11;100.00;100126.41;5090787;28;20027;-69
2023/11/06 08:20:39;;;;;;;1.95;0.38;;;;;;;13.19;100.00;100129.84;5090232;28;20054;-70
2023/11/06 08:23:04;;;;;;;0.57;0.10;;;;;;;13.27;100.00;100128.97;5090729;28;20024;-69
2023/11/06 08:25:31;;;;;;;3.45;0.13;;;;;;;13.23;100.00;100130.31;5089457;28;20035;-69
2023/11/06 08:27:57;;;;;;;2.33;0.30;;;;;;;13.26;100.00;100129.94;5091037;28;20032;-69
2023/11/06 08:30:23;;;;;;;0.30;0.10;;;;;;;13.34;100.00;100144.81;5090651;28;20035;-69
2023/11/06 08:32:48;;;;;;;3.28;0.20;;;;;;;13.54;100.00;100138.19;5090409;28;20492;-69
2023/11/06 08:35:14;;;;;;;2.92;0.30;;;;;;;13.53;100.00;100126.91;5090840;28;20099;-69
2023/11/06 08:37:39;;;;;;;0.25;0.10;;;;;;;13.52;100.00;100130.50;5090129;28;20108;-69
2023/11/06 08:40:05;;;;;;;0.90;0.20;;;;;;;13.54;100.00;100143.41;5090405;28;20024;-68
2023/11/06 08:42:31;;;;;;;3.28;0.22;;;;;;;13.49;100.00;100138.69;5089662;28;20034;-69
2023/11/06 08:44:57;;;;;;;0.80;0.10;;;;;;;13.45;100.00;100139.19;5090796;28;20114;-69
2023/11/06 08:47:23;;;;;;;0.70;0.10;;;;;;;13.48;100.00;100139.69;5090452;28;20105;-69
2023/11/06 08:49:49;;;;;;;3.08;0.10;;;;;;;13.50;100.00;100144.75;5090219;28;20160;-69
2023/11/06 08:52:14;;;;;;;1.15;0.10;;;;;;;13.53;100.00;100149.63;5090638;28;20103;-68
2023/11/06 08:54:45;;;;;;;4.88;0.20;;;;;;;13.53;100.00;100150.44;5090294;28;20081;-68
2023/11/06 08:57:14;;;;;;;2.35;0.22;;;;;;;13.50;100.00;100152.59;5090585;28;20032;-68
2023/11/06 08:59:43;;;;;;;4.32;0.10;;;;;;;13.54;100.00;100148.66;5088416;28;20036;-68
2023/11/06 09:02:09;;;;;;;2.85;0.15;;;;;;;13.65;100.00;100148.28;5086513;28;20020;-68
2023/11/06 09:04:34;;;;;;;0.40;0.10;;;;;;;13.66;100.00;100151.72;5089816;28;20032;-68
2023/11/06 09:07:01;;;;;;;0.45;0.10;;;;;;;13.80;100.00;100153.56;5090977;28;20054;-69
2023/11/06 09:09:26;;;;;;;1.38;0.10;;;;;;;13.98;100.00;100158.53;5090952;28;20032;-69
2023/11/06 09:11:52;;;;;;;0.50;0.10;;;;;;;14.10;100.00;100159.78;5089907;28;20040;-68
2023/11/06 09:14:17;;;;;;;1.00;0.20;;;;;;;14.09;100.00;100158.97;5090119;28;20023;-68
2023/11/06 09:16:42;;;;;;;1.13;0.10;;;;;;;14.10;100.00;100165.00;5092962;28;20093;-68
2023/11/06 09:19:08;;;;;;;2.35;0.15;;;;;;;14.13;100.00;100170.72;5094535;28;20437;-68
2023/11/06 09:21:34;;;;;;;1.95;0.20;;;;;;;14.22;100.00;100174.06;5093965;28;20051;-68
2023/11/06 09:24:00;;;;;;;4.10;0.20;;;;;;;14.31;100.00;100166.97;5094616;28;20039;-68
2023/11/06 09:26:26;;;;;;;0.82;0.10;;;;;;;14.32;100.00;100165.97;5093571;28;20111;-68
2023/11/06 09:28:53;;;;;;;0.20;0.10;;;;;;;14.45;100.00;100171.47;5094040;28;20054;-68
2023/11/06 09:31:20;;;;;;;0.82;0.20;;;;;;;14.58;100.00;100166.47;5094402;28;20032;-68
2023/11/06 09:33:52;;;;;;;1.20;0.10;;;;;;;14.51;100.00;100171.59;5093604;28;20391;-68
2023/11/06 09:36:17;;;;;;;5.07;0.00;;;;;;;14.52;100.00;100169.78;5094345;28;20024;-68
2023/11/06 09:38:43;;;;;;;0.85;0.00;;;;;;;14.60;100.00;100174.97;5093532;28;20059;-68
2023/11/06 09:41:11;;;;;;;0.20;0.10;;;;;;;14.65;100.00;100169.97;5094327;28;20066;-68
2023/11/06 09:43:38;;;;;;;1.85;0.10;;;;;;;14.69;100.00;100179.13;5093475;28;20380;-68
2023/11/06 09:46:08;;;;;;;2.90;0.10;;;;;;;14.68;100.00;100176.69;5093972;28;20024;-67
2023/11/06 09:48:35;;;;;;;2.25;0.20;;;;;;;14.81;100.00;100180.31;5093270;28;20028;-68
2023/11/06 09:51:29;;;;;;;0.85;0.10;;;;;;;14.96;100.00;100182.97;5094289;28;20543;-67
2023/11/06 09:53:57;;;;;;;0.85;0.10;;;;;;;15.08;100.00;100185.97;5094090;28;20035;-67
2023/11/06 09:56:23;;;;;;;0.75;0.10;;;;;;;15.09;100.00;100192.84;5094103;28;20046;-67
2023/11/06 09:58:49;;;;;;;2.33;0.05;;;;;;;15.13;100.00;100183.59;5093085;28;20454;-67
2023/11/06 10:01:15;;;;;;;0.30;0.10;;;;;;;15.23;100.00;100192.81;5093723;28;20441;-67
2023/11/06 10:03:40;;;;;;;1.42;0.10;;;;;;;15.37;100.00;100190.38;5092963;28;20074;-67
2023/11/06 10:06:07;;;;;;;2.25;0.00;;;;;;;15.39;100.00;100198.91;5093570;28;20086;-67
2023/11/06 10:08:36;;;;;;;0.10;0.00;;;;;;;15.36;100.00;100199.25;5093217;28;20032;-67
2023/11/06 10:11:04;;;;;;;2.83;0.10;;;;;;;15.35;100.00;100192.38;5093238;28;20035;-67
2023/11/06 10:13:29;;;;;;;1.27;0.05;;;;;;;15.34;100.00;100207.31;5093051;28;20035;-67
2023/11/06 10:15:55;;;;;;;0.80;0.10;;;;;;;15.41;100.00;100202.97;5096901;28;20032;-67
2023/11/06 10:18:23;;;;;;;0.65;0.10;;;;;;;15.63;100.00;100197.81;5094572;28;20582;-67
2023/11/06 10:20:51;;;;;;;0.77;0.10;;;;;;;15.79;100.00;100208.91;5092846;28;20139;-67
2023/11/06 10:23:29;;;;;;;2.30;0.10;;;;;;;15.79;100.00;100195.78;5093304;28;20480;-67
2023/11/06 10:25:57;;;;;;;2.55;0.30;;;;;;;15.75;100.00;100201.59;5092063;28;20392;-67
2023/11/06 10:28:23;;;;;;;1.10;0.10;;;;;;;15.72;100.00;100202.78;5095315;28;20040;-67
2023/11/06 10:30:54;;;;;;;0.60;0.10;;;;;;;15.68;100.00;100205.94;5092014;28;20411;-67
2023/11/06 10:33:23;;;;;;;1.85;0.10;;;;;;;15.64;100.00;100200.25;5094516;28;20067;-67
2023/11/06 10:35:48;;;;;;;1.73;0.10;;;;;;;15.69;100.00;100199.69;5092910;28;20130;-67
2023/11/06 10:38:33;;;;;;;0.63;0.32;;;;;;;15.76;100.00;100208.47;5093133;28;20135;-67
2023/11/06 10:41:00;;;;;;;1.15;0.00;;;;;;;15.82;100.00;100205.94;5095489;28;20110;-66
2023/11/06 10:43:26;;;;;;;1.75;0.10;;;;;;;15.99;100.00;100206.53;5093299;28;20046;-67
2023/11/06 10:45:52;;;;;;;0.22;0.00;;;;;;;16.13;100.00;100204.81;5092372;28;20491;-68
2023/11/06 10:48:31;;;;;;;5.25;0.20;;;;;;;16.14;100.00;100202.00;5092888;28;20028;-67
2023/11/06 10:50:58;;;;;;;1.05;0.10;;;;;;;16.22;100.00;100201.91;5090250;28;20351;-67
2023/11/06 10:53:25;;;;;;;0.55;0.10;;;;;;;16.25;100.00;100201.53;5093442;28;20115;-67
2023/11/06 10:55:52;;;;;;;1.65;0.10;;;;;;;16.23;100.00;100198.25;5105323;28;20028;-67
2023/11/06 10:58:21;;;;;;;0.55;0.00;;;;;;;16.14;100.00;100204.63;5092548;28;20055;-67
2023/11/06 11:00:47;;;;;;;1.05;0.10;;;;;;;16.10;100.00;100206.00;5091775;28;20471;-67
2023/11/06 11:03:14;;;;;;;1.85;0.10;;;;;;;16.09;100.00;100204.38;5092463;28;20040;-67
2023/11/06 11:05:40;;;;;;;2.35;0.43;;;;;;;16.10;100.00;100210.44;5092158;28;20116;-67
2023/11/06 11:08:05;;;;;;;1.85;0.10;;;;;;;16.07;100.00;100209.00;5092125;28;20471;-67
2023/11/06 11:10:31;;;;;;;1.48;0.10;;;;;;;16.03;100.00;100212.22;5092113;28;20138;-67
2023/11/06 11:13:00;;;;;;;1.90;0.10;;;;;;;15.98;100.00;100212.78;5092272;28;20043;-67
2023/11/06 11:15:31;;;;;;;1.95;0.20;;;;;;;16.02;100.00;100206.16;5088319;28;20425;-67
2023/11/06 11:18:10;;;;;;;1.35;0.00;;;;;;;16.15;100.00;100208.91;5089950;28;20103;-68